LVKBS SAAR-SABE
Flight info
| Callsign | LVKBS |
|---|---|
| Flight time | 0h 39m |
| Altitude | 17000 |
| Route | VASAL W20 MULTA W24 SNT |
| Aircraft | P180/L-SDGF/S |
Departure
| Time | 2026-04-16 23:09 |
|---|---|
| Airport | Rosario Islas Malvinas International Airport (SAAR) |
Arrival
| Time | 2026-04-16 23:48 |
|---|---|
| Airport | Aeroparque Jorge Newbery (SABE) |
| Time | Latitude | Longitude | Altitude | Speed | Heading |
|---|---|---|---|---|---|
| 2026-04-16 22:43 | -32.91814 | -60.78198 | 90 ft | 0 kts | 21° |
| 2026-04-16 23:03 | -32.91803 | -60.78197 | 93 ft | 2 kts | 346° |
| 2026-04-16 23:03 | -32.91790 | -60.78219 | 90 ft | 4 kts | 291° |
| 2026-04-16 23:03 | -32.91756 | -60.78251 | 91 ft | 14 kts | 338° |
| 2026-04-16 23:04 | -32.91712 | -60.78287 | 90 ft | 8 kts | 14° |
| 2026-04-16 23:04 | -32.91640 | -60.78253 | 90 ft | 14 kts | 20° |
| 2026-04-16 23:04 | -32.91549 | -60.78211 | 90 ft | 16 kts | 21° |
| 2026-04-16 23:04 | -32.91449 | -60.78166 | 91 ft | 13 kts | 16° |
| 2026-04-16 23:05 | -32.91351 | -60.78226 | 90 ft | 19 kts | 321° |
| 2026-04-16 23:05 | -32.91236 | -60.78336 | 90 ft | 23 kts | 321° |
| 2026-04-16 23:05 | -32.91099 | -60.78463 | 90 ft | 25 kts | 327° |
| 2026-04-16 23:05 | -32.90969 | -60.78535 | 92 ft | 21 kts | 338° |
| 2026-04-16 23:06 | -32.90812 | -60.78571 | 92 ft | 25 kts | 2° |
| 2026-04-16 23:06 | -32.90625 | -60.78528 | 91 ft | 29 kts | 13° |
| 2026-04-16 23:06 | -32.90416 | -60.78481 | 88 ft | 33 kts | 11° |
| 2026-04-16 23:06 | -32.90180 | -60.78426 | 90 ft | 35 kts | 11° |
| 2026-04-16 23:07 | -32.89933 | -60.78373 | 93 ft | 37 kts | 10° |
| 2026-04-16 23:07 | -32.89677 | -60.78313 | 92 ft | 38 kts | 11° |
| 2026-04-16 23:07 | -32.89416 | -60.78256 | 92 ft | 39 kts | 11° |
| 2026-04-16 23:07 | -32.89231 | -60.78208 | 93 ft | 11 kts | 315° |
| 2026-04-16 23:08 | -32.89296 | -60.78229 | 92 ft | 28 kts | 191° |
| 2026-04-16 23:08 | -32.89739 | -60.78329 | 93 ft | 99 kts | 191° |
| 2026-04-16 23:08 | -32.90587 | -60.78521 | 138 ft | 141 kts | 193° |
| 2026-04-16 23:08 | -32.91569 | -60.78779 | 524 ft | 151 kts | 191° |
| 2026-04-16 23:09 | -32.92672 | -60.79065 | 912 ft | 169 kts | 188° |
| 2026-04-16 23:09 | -32.93786 | -60.79355 | 1797 ft | 155 kts | 180° |
| 2026-04-16 23:09 | -32.94872 | -60.79522 | 2459 ft | 162 kts | 181° |
| 2026-04-16 23:09 | -32.95998 | -60.79747 | 3102 ft | 166 kts | 182° |
| 2026-04-16 23:10 | -32.97131 | -60.80005 | 3772 ft | 166 kts | 183° |
| 2026-04-16 23:10 | -32.98286 | -60.80268 | 4367 ft | 171 kts | 184° |
| 2026-04-16 23:10 | -32.99402 | -60.80528 | 5217 ft | 160 kts | 183° |
| 2026-04-16 23:10 | -33.00513 | -60.80758 | 5831 ft | 162 kts | 179° |
| 2026-04-16 23:11 | -33.01617 | -60.80657 | 6458 ft | 158 kts | 162° |
| 2026-04-16 23:11 | -33.02635 | -60.80174 | 7029 ft | 158 kts | 147° |
| 2026-04-16 23:11 | -33.03507 | -60.79364 | 7563 ft | 160 kts | 137° |
| 2026-04-16 23:11 | -33.04345 | -60.78489 | 8108 ft | 163 kts | 139° |
| 2026-04-16 23:12 | -33.05213 | -60.77599 | 8651 ft | 166 kts | 139° |
| 2026-04-16 23:12 | -33.06095 | -60.76688 | 9183 ft | 169 kts | 139° |
| 2026-04-16 23:12 | -33.06987 | -60.75762 | 9707 ft | 171 kts | 139° |
| 2026-04-16 23:12 | -33.07891 | -60.74825 | 10178 ft | 174 kts | 140° |
| 2026-04-16 23:13 | -33.08808 | -60.73874 | 10634 ft | 176 kts | 140° |
| 2026-04-16 23:13 | -33.09730 | -60.72923 | 11087 ft | 178 kts | 140° |
| 2026-04-16 23:13 | -33.10686 | -60.71943 | 11545 ft | 180 kts | 140° |
| 2026-04-16 23:13 | -33.11319 | -60.71294 | 11841 ft | 181 kts | 140° |
| 2026-04-16 23:14 | -33.13495 | -60.69059 | 12806 ft | 186 kts | 141° |
| 2026-04-16 23:14 | -33.14480 | -60.68047 | 13225 ft | 188 kts | 141° |
| 2026-04-16 23:14 | -33.15474 | -60.67025 | 13636 ft | 190 kts | 141° |
| 2026-04-16 23:15 | -33.17491 | -60.64949 | 14358 ft | 193 kts | 141° |
| 2026-04-16 23:15 | -33.18514 | -60.63897 | 14707 ft | 195 kts | 141° |
| 2026-04-16 23:15 | -33.19547 | -60.62836 | 15046 ft | 196 kts | 141° |
| 2026-04-16 23:16 | -33.20585 | -60.61767 | 15383 ft | 198 kts | 141° |
| 2026-04-16 23:16 | -33.21623 | -60.60709 | 15708 ft | 199 kts | 140° |
| 2026-04-16 23:16 | -33.22651 | -60.59584 | 16023 ft | 201 kts | 140° |
| 2026-04-16 23:16 | -33.23723 | -60.58495 | 16344 ft | 202 kts | 143° |
| 2026-04-16 23:17 | -33.24808 | -60.57412 | 16668 ft | 204 kts | 142° |
| 2026-04-16 23:17 | -33.25917 | -60.56273 | 16785 ft | 216 kts | 141° |
| 2026-04-16 23:17 | -33.27088 | -60.55058 | 16818 ft | 230 kts | 141° |
| 2026-04-16 23:17 | -33.28330 | -60.53774 | 16835 ft | 242 kts | 141° |
| 2026-04-16 23:18 | -33.29633 | -60.52428 | 16831 ft | 253 kts | 141° |
| 2026-04-16 23:18 | -33.30988 | -60.51028 | 16829 ft | 261 kts | 141° |
| 2026-04-16 23:18 | -33.32386 | -60.49582 | 16827 ft | 269 kts | 141° |
| 2026-04-16 23:18 | -33.33838 | -60.48123 | 16826 ft | 275 kts | 146° |
| 2026-04-16 23:19 | -33.35475 | -60.46945 | 16831 ft | 281 kts | 152° |
| 2026-04-16 23:19 | -33.37205 | -60.45775 | 16828 ft | 287 kts | 152° |
| 2026-04-16 23:19 | -33.38946 | -60.44568 | 16827 ft | 292 kts | 151° |
| 2026-04-16 23:19 | -33.40714 | -60.43323 | 16829 ft | 295 kts | 151° |
| 2026-04-16 23:20 | -33.42499 | -60.42073 | 16827 ft | 298 kts | 151° |
| 2026-04-16 23:20 | -33.44299 | -60.40823 | 16826 ft | 301 kts | 151° |
| 2026-04-16 23:20 | -33.46095 | -60.39572 | 16822 ft | 303 kts | 151° |
| 2026-04-16 23:20 | -33.47940 | -60.38281 | 16822 ft | 305 kts | 151° |
| 2026-04-16 23:21 | -33.49777 | -60.36996 | 16825 ft | 306 kts | 151° |
| 2026-04-16 23:21 | -33.51599 | -60.35725 | 16819 ft | 307 kts | 151° |
| 2026-04-16 23:21 | -33.53475 | -60.34414 | 16826 ft | 308 kts | 151° |
| 2026-04-16 23:21 | -33.55307 | -60.33131 | 16819 ft | 309 kts | 151° |
| 2026-04-16 23:22 | -33.57169 | -60.31828 | 16824 ft | 310 kts | 151° |
| 2026-04-16 23:22 | -33.59031 | -60.30526 | 16821 ft | 310 kts | 151° |
| 2026-04-16 23:22 | -33.60897 | -60.29220 | 16821 ft | 311 kts | 151° |
| 2026-04-16 23:22 | -33.62763 | -60.27912 | 16824 ft | 311 kts | 151° |
| 2026-04-16 23:23 | -33.64634 | -60.26598 | 16820 ft | 311 kts | 151° |
| 2026-04-16 23:23 | -33.66510 | -60.25283 | 16821 ft | 312 kts | 151° |
| 2026-04-16 23:23 | -33.68381 | -60.23970 | 16822 ft | 312 kts | 151° |
| 2026-04-16 23:23 | -33.70255 | -60.22653 | 16814 ft | 312 kts | 151° |
| 2026-04-16 23:24 | -33.72131 | -60.21335 | 16820 ft | 312 kts | 151° |
| 2026-04-16 23:24 | -33.74009 | -60.20016 | 16819 ft | 313 kts | 151° |
| 2026-04-16 23:24 | -33.75889 | -60.18692 | 16818 ft | 312 kts | 151° |
| 2026-04-16 23:24 | -33.77769 | -60.17368 | 16823 ft | 312 kts | 151° |
| 2026-04-16 23:25 | -33.79622 | -60.16062 | 16818 ft | 312 kts | 151° |
| 2026-04-16 23:25 | -33.81501 | -60.14738 | 16815 ft | 313 kts | 151° |
| 2026-04-16 23:25 | -33.83366 | -60.13391 | 16814 ft | 313 kts | 147° |
| 2026-04-16 23:25 | -33.84873 | -60.11494 | 16798 ft | 317 kts | 127° |
| 2026-04-16 23:26 | -33.86089 | -60.09272 | 16799 ft | 317 kts | 125° |
| 2026-04-16 23:26 | -33.87303 | -60.07051 | 16802 ft | 317 kts | 126° |
| 2026-04-16 23:26 | -33.88543 | -60.04855 | 16802 ft | 317 kts | 126° |
| 2026-04-16 23:26 | -33.89769 | -60.02686 | 16803 ft | 317 kts | 126° |
| 2026-04-16 23:27 | -33.91002 | -60.00475 | 16804 ft | 317 kts | 126° |
| 2026-04-16 23:27 | -33.92228 | -59.98267 | 16806 ft | 317 kts | 126° |
| 2026-04-16 23:27 | -33.93464 | -59.96052 | 16803 ft | 318 kts | 126° |
| 2026-04-16 23:27 | -33.94701 | -59.93841 | 16802 ft | 318 kts | 126° |
| 2026-04-16 23:28 | -33.95931 | -59.91635 | 16804 ft | 318 kts | 126° |
| 2026-04-16 23:28 | -33.97165 | -59.89419 | 16802 ft | 318 kts | 126° |
| 2026-04-16 23:28 | -33.98378 | -59.87239 | 16805 ft | 318 kts | 126° |
| 2026-04-16 23:28 | -33.99610 | -59.85024 | 16805 ft | 318 kts | 126° |
| 2026-04-16 23:29 | -34.00845 | -59.82806 | 16808 ft | 318 kts | 126° |
| 2026-04-16 23:29 | -34.02076 | -59.80589 | 16801 ft | 318 kts | 126° |
| 2026-04-16 23:29 | -34.03310 | -59.78367 | 16797 ft | 318 kts | 126° |
| 2026-04-16 23:29 | -34.04541 | -59.76152 | 16799 ft | 318 kts | 126° |
| 2026-04-16 23:30 | -34.05771 | -59.73932 | 16804 ft | 318 kts | 126° |
| 2026-04-16 23:30 | -34.07004 | -59.71709 | 16801 ft | 319 kts | 126° |
| 2026-04-16 23:30 | -34.08236 | -59.69486 | 16798 ft | 319 kts | 126° |
| 2026-04-16 23:30 | -34.09467 | -59.67263 | 16799 ft | 319 kts | 126° |
| 2026-04-16 23:31 | -34.10695 | -59.65042 | 16797 ft | 319 kts | 126° |
| 2026-04-16 23:31 | -34.11911 | -59.62844 | 16794 ft | 319 kts | 126° |
| 2026-04-16 23:31 | -34.13141 | -59.60619 | 16797 ft | 319 kts | 126° |
| 2026-04-16 23:31 | -34.14375 | -59.58386 | 16798 ft | 319 kts | 126° |
| 2026-04-16 23:32 | -34.15603 | -59.56161 | 16799 ft | 319 kts | 126° |
| 2026-04-16 23:32 | -34.16834 | -59.53928 | 16793 ft | 319 kts | 126° |
| 2026-04-16 23:32 | -34.18067 | -59.51692 | 16794 ft | 319 kts | 126° |
| 2026-04-16 23:32 | -34.19304 | -59.49450 | 16640 ft | 324 kts | 126° |
| 2026-04-16 23:33 | -34.20578 | -59.47139 | 16231 ft | 335 kts | 126° |
| 2026-04-16 23:33 | -34.21853 | -59.44754 | 15783 ft | 335 kts | 121° |
| 2026-04-16 23:33 | -34.22574 | -59.42093 | 15340 ft | 333 kts | 102° |
| 2026-04-16 23:33 | -34.22959 | -59.39346 | 14910 ft | 330 kts | 101° |
| 2026-04-16 23:34 | -34.23348 | -59.36660 | 14481 ft | 327 kts | 102° |
| 2026-04-16 23:34 | -34.23777 | -59.33942 | 14044 ft | 324 kts | 103° |
| 2026-04-16 23:34 | -34.24191 | -59.31310 | 13626 ft | 322 kts | 102° |
| 2026-04-16 23:34 | -34.24588 | -59.28666 | 13169 ft | 319 kts | 102° |
| 2026-04-16 23:35 | -34.24980 | -59.26044 | 12748 ft | 315 kts | 102° |
| 2026-04-16 23:35 | -34.25374 | -59.23448 | 12329 ft | 312 kts | 102° |
| 2026-04-16 23:35 | -34.25767 | -59.20881 | 11918 ft | 309 kts | 102° |
| 2026-04-16 23:35 | -34.26153 | -59.18337 | 11510 ft | 306 kts | 102° |
| 2026-04-16 23:36 | -34.26533 | -59.15813 | 11111 ft | 303 kts | 102° |
| 2026-04-16 23:36 | -34.26909 | -59.13314 | 10706 ft | 301 kts | 102° |
| 2026-04-16 23:36 | -34.27282 | -59.10835 | 10311 ft | 298 kts | 102° |
| 2026-04-16 23:36 | -34.27653 | -59.08379 | 9917 ft | 296 kts | 102° |
| 2026-04-16 23:37 | -34.28020 | -59.05939 | 9520 ft | 294 kts | 102° |
| 2026-04-16 23:37 | -34.28382 | -59.03522 | 9115 ft | 291 kts | 103° |
| 2026-04-16 23:37 | -34.28740 | -59.01128 | 8728 ft | 288 kts | 103° |
| 2026-04-16 23:37 | -34.29095 | -58.98758 | 8347 ft | 285 kts | 103° |
| 2026-04-16 23:38 | -34.29447 | -58.96408 | 7975 ft | 283 kts | 103° |
| 2026-04-16 23:38 | -34.29798 | -58.94077 | 7604 ft | 281 kts | 103° |
| 2026-04-16 23:38 | -34.30145 | -58.91755 | 7232 ft | 279 kts | 103° |
| 2026-04-16 23:38 | -34.30483 | -58.89479 | 6869 ft | 278 kts | 103° |
| 2026-04-16 23:39 | -34.30824 | -58.87177 | 6506 ft | 276 kts | 103° |
| 2026-04-16 23:39 | -34.31163 | -58.84899 | 6141 ft | 275 kts | 103° |
| 2026-04-16 23:39 | -34.31498 | -58.82625 | 5762 ft | 273 kts | 103° |
| 2026-04-16 23:39 | -34.31833 | -58.80367 | 5402 ft | 271 kts | 103° |
| 2026-04-16 23:40 | -34.32165 | -58.78126 | 5044 ft | 270 kts | 103° |
| 2026-04-16 23:40 | -34.32756 | -58.76019 | 4802 ft | 259 kts | 124° |
| 2026-04-16 23:40 | -34.33887 | -58.74400 | 4774 ft | 246 kts | 137° |
| 2026-04-16 23:40 | -34.34679 | -58.73444 | 4772 ft | 240 kts | 137° |
| 2026-04-16 23:41 | -34.35839 | -58.72023 | 4769 ft | 234 kts | 136° |
| 2026-04-16 23:41 | -34.37318 | -58.70169 | 4631 ft | 234 kts | 136° |
| 2026-04-16 23:41 | -34.38459 | -58.68747 | 4404 ft | 234 kts | 136° |
| 2026-04-16 23:41 | -34.39589 | -58.67344 | 4165 ft | 230 kts | 136° |
| 2026-04-16 23:42 | -34.40338 | -58.66411 | 4006 ft | 227 kts | 136° |
| 2026-04-16 23:42 | -34.41416 | -58.65070 | 3758 ft | 223 kts | 137° |
| 2026-04-16 23:42 | -34.42489 | -58.63734 | 3516 ft | 220 kts | 137° |
| 2026-04-16 23:42 | -34.43551 | -58.62410 | 3285 ft | 217 kts | 137° |
| 2026-04-16 23:43 | -34.44596 | -58.61108 | 3051 ft | 210 kts | 136° |
| 2026-04-16 23:43 | -34.45591 | -58.59870 | 2827 ft | 200 kts | 136° |
| 2026-04-16 23:43 | -34.46422 | -58.58605 | 2797 ft | 180 kts | 129° |
| 2026-04-16 23:43 | -34.47047 | -58.57474 | 2768 ft | 145 kts | 129° |
| 2026-04-16 23:44 | -34.47632 | -58.56445 | 2619 ft | 153 kts | 130° |
| 2026-04-16 23:44 | -34.48233 | -58.55371 | 2426 ft | 150 kts | 129° |
| 2026-04-16 23:44 | -34.48793 | -58.54359 | 2236 ft | 141 kts | 129° |
| 2026-04-16 23:44 | -34.49322 | -58.53404 | 2056 ft | 136 kts | 130° |
| 2026-04-16 23:45 | -34.49851 | -58.52464 | 1878 ft | 134 kts | 130° |
| 2026-04-16 23:45 | -34.50375 | -58.51523 | 1706 ft | 135 kts | 130° |
| 2026-04-16 23:45 | -34.50897 | -58.50585 | 1534 ft | 134 kts | 130° |
| 2026-04-16 23:45 | -34.51414 | -58.49664 | 1355 ft | 132 kts | 130° |
| 2026-04-16 23:46 | -34.51930 | -58.48739 | 1178 ft | 130 kts | 129° |
| 2026-04-16 23:46 | -34.52429 | -58.47840 | 1010 ft | 129 kts | 129° |
| 2026-04-16 23:46 | -34.52928 | -58.46948 | 853 ft | 125 kts | 130° |
| 2026-04-16 23:46 | -34.53410 | -58.46086 | 710 ft | 124 kts | 129° |
| 2026-04-16 23:47 | -34.53885 | -58.45228 | 566 ft | 119 kts | 129° |
| 2026-04-16 23:47 | -34.54359 | -58.44393 | 409 ft | 121 kts | 128° |
| 2026-04-16 23:47 | -34.54820 | -58.43572 | 271 ft | 117 kts | 128° |
| 2026-04-16 23:47 | -34.55272 | -58.42744 | 112 ft | 120 kts | 128° |
| 2026-04-16 23:48 | -34.55721 | -58.41934 | 23 ft | 106 kts | 129° |
| 2026-04-16 23:48 | -34.56069 | -58.41314 | 21 ft | 58 kts | 124° |
| 2026-04-16 23:48 | -34.56198 | -58.41091 | 22 ft | 8 kts | 150° |
| 2026-04-16 23:48 | -34.56264 | -58.41133 | 22 ft | 14 kts | 213° |
| 2026-04-16 23:49 | -34.56281 | -58.41147 | 21 ft | 0 kts | 214° |
| 2026-04-16 23:49 | -34.56290 | -58.41154 | 21 ft | 4 kts | 214° |
| 2026-04-16 23:49 | -34.56332 | -58.41185 | 21 ft | 8 kts | 198° |
| 2026-04-16 23:49 | -34.56373 | -58.41158 | 21 ft | 10 kts | 122° |
| 2026-04-16 23:50 | -34.56405 | -58.41102 | 21 ft | 5 kts | 123° |
| 2026-04-16 23:50 | -34.56436 | -58.41045 | 22 ft | 10 kts | 123° |
| 2026-04-16 23:50 | -34.56480 | -58.40964 | 21 ft | 13 kts | 123° |
| 2026-04-16 23:50 | -34.56524 | -58.40861 | 21 ft | 14 kts | 110° |
| 2026-04-16 23:51 | -34.56549 | -58.40845 | 21 ft | 1 kts | 221° |
| 2026-04-16 23:51 | -34.56553 | -58.40849 | 21 ft | 0 kts | 215° |